Time,TemperatureF,DewpointF,PressureIn,WindDirection,WindDirectionDegrees,WindSpeedMPH,WindSpeedGustMPH,Humidity,HourlyPrecipIn,Conditions,Clouds,dailyrainin,SolarRadiationWatts/m^2,SoftwareType,DateUTC
2013-05-01 00:01:00,69.5,60.0,29.89,SE,145,2.0,5.0,71,0.00,,,0.00,0,weatherlink.com 1.10,2013-05-01 04:01:00,
2013-05-01 00:16:00,69.1,59.0,29.90,SSE,158,1.0,6.0,70,0.00,,,0.00,0,weatherlink.com 1.10,2013-05-01 04:16:00,
2013-05-01 00:31:00,68.8,58.0,29.90,SSE,166,3.0,6.0,69,0.00,,,0.00,0,weatherlink.com 1.10,2013-05-01 04:31:00,
2013-05-01 00:46:00,68.4,58.0,29.90,South,170,3.0,6.0,69,0.00,,,0.00,0,weatherlink.com 1.10,2013-05-01 04:46:00,
2013-05-01 01:01:00,67.9,58.0,29.90,South,170,2.0,5.0,70,0.00,,,0.00,0,weatherlink.com 1.10,2013-05-01 05:01:00,
2013-05-01 01:16:00,67.4,57.0,29.90,South,174,1.0,5.0,70,0.00,,,0.00,0,weatherlink.com 1.10,2013-05-01 05:16:00,
2013-05-01 01:31:00,67.0,57.0,29.91,South,172,0.0,4.0,70,0.00,,,0.00,0,weatherlink.com 1.10,2013-05-01 05:31:00,
2013-05-01 01:46:00,66.6,57.0,29.91,SSE,168,0.0,4.0,70,0.00,,,0.00,0,weatherlink.com 1.10,2013-05-01 05:46:00,
2013-05-01 02:01:00,66.3,56.0,29.92,SSE,168,3.0,4.0,70,0.00,,,0.00,0,weatherlink.com 1.10,2013-05-01 06:01:00,
2013-05-01 02:16:00,66.1,56.0,29.92,South,170,1.0,4.0,70,0.00,,,0.00,0,weatherlink.com 1.10,2013-05-01 06:16:00,
2013-05-01 02:31:00,65.8,56.0,29.92,South,169,0.0,5.0,70,0.00,,,0.00,0,weatherlink.com 1.10,2013-05-01 06:31:00,
2013-05-01 02:46:00,65.5,55.0,29.92,South,170,0.0,4.0,70,0.00,,,0.00,0,weatherlink.com 1.10,2013-05-01 06:46:00,
2013-05-01 03:02:00,65.1,55.0,29.93,SSE,168,1.0,4.0,70,0.00,,,0.00,0,weatherlink.com 1.10,2013-05-01 07:02:00,
2013-05-01 03:17:00,64.8,55.0,29.93,SSE,168,0.0,3.0,71,0.00,,,0.00,0,weatherlink.com 1.10,2013-05-01 07:17:00,
2013-05-01 03:32:00,64.5,55.0,29.93,SSE,168,0.0,3.0,71,0.00,,,0.00,0,weatherlink.com 1.10,2013-05-01 07:32:00,
2013-05-01 03:47:00,64.0,55.0,29.93,SSE,168,0.0,2.0,72,0.00,,,0.00,0,weatherlink.com 1.10,2013-05-01 07:47:00,
2013-05-01 04:02:00,63.3,55.0,29.94,SSE,167,0.0,1.0,73,0.00,,,0.00,0,weatherlink.com 1.10,2013-05-01 08:02:00,
2013-05-01 04:17:00,62.8,54.0,29.94,SSE,168,2.0,4.0,73,0.00,,,0.00,0,weatherlink.com 1.10,2013-05-01 08:17:00,
2013-05-01 04:32:00,62.7,54.0,29.95,SSE,167,0.0,2.0,73,0.00,,,0.00,0,weatherlink.com 1.10,2013-05-01 08:32:00,
2013-05-01 04:47:00,62.3,54.0,29.95,SSE,168,2.0,3.0,74,0.00,,,0.00,0,weatherlink.com 1.10,2013-05-01 08:47:00,
2013-05-01 05:02:00,62.0,54.0,29.96,SSE,167,0.0,4.0,74,0.00,,,0.00,0,weatherlink.com 1.10,2013-05-01 09:02:00,
2013-05-01 05:17:00,62.0,54.0,29.96,SSE,167,1.0,4.0,74,0.00,,,0.00,0,weatherlink.com 1.10,2013-05-01 09:17:00,
2013-05-01 05:32:00,61.8,53.0,29.96,SSE,165,2.0,5.0,74,0.00,,,0.00,0,weatherlink.com 1.10,2013-05-01 09:32:00,
2013-05-01 05:47:00,61.8,54.0,29.97,South,172,0.0,4.0,75,0.00,,,0.00,0,weatherlink.com 1.10,2013-05-01 09:47:00,
2013-05-01 06:02:00,61.9,54.0,29.98,South,186,1.0,6.0,74,0.00,,,0.00,0,weatherlink.com 1.10,2013-05-01 10:02:00,
2013-05-01 06:17:00,61.8,53.0,29.98,South,179,1.0,4.0,74,0.00,,,0.00,0,weatherlink.com 1.10,2013-05-01 10:17:00,
2013-05-01 06:32:00,61.8,53.0,29.99,South,177,1.0,5.0,74,0.00,,,0.00,0,weatherlink.com 1.10,2013-05-01 10:32:00,
2013-05-01 06:47:00,61.5,54.0,29.99,South,177,1.0,2.0,75,0.00,,,0.00,7,weatherlink.com 1.10,2013-05-01 10:47:00,
2013-05-01 07:02:00,61.2,54.0,30.00,South,177,0.0,3.0,76,0.00,,,0.00,18,weatherlink.com 1.10,2013-05-01 11:02:00,
2013-05-01 07:17:00,61.3,54.0,30.00,South,177,1.0,3.0,76,0.00,,,0.00,26,weatherlink.com 1.10,2013-05-01 11:17:00,
2013-05-01 07:32:00,61.8,54.0,30.01,South,177,0.0,4.0,75,0.00,,,0.00,46,weatherlink.com 1.10,2013-05-01 11:32:00,
2013-05-01 07:47:00,63.0,54.0,30.01,South,176,2.0,6.0,73,0.00,,,0.00,81,weatherlink.com 1.10,2013-05-01 11:47:00,
2013-05-01 08:03:00,64.1,55.0,30.02,SSE,168,1.0,4.0,71,0.00,,,0.00,128,weatherlink.com 1.10,2013-05-01 12:03:00,
2013-05-01 08:18:00,64.8,54.0,30.02,South,172,2.0,7.0,69,0.00,,,0.00,181,weatherlink.com 1.10,2013-05-01 12:18:00,
2013-05-01 08:33:00,65.8,55.0,30.02,South,182,1.0,5.0,68,0.00,,,0.00,230,weatherlink.com 1.10,2013-05-01 12:33:00,
2013-05-01 08:48:00,66.5,56.0,30.02,SSE,166,2.0,5.0,68,0.00,,,0.00,279,weatherlink.com 1.10,2013-05-01 12:48:00,
2013-05-01 09:03:00,67.5,56.0,30.03,SSE,167,2.0,6.0,67,0.00,,,0.00,325,weatherlink.com 1.10,2013-05-01 13:03:00,
2013-05-01 09:18:00,68.6,57.0,30.03,SSE,162,2.0,5.0,66,0.00,,,0.00,376,weatherlink.com 1.10,2013-05-01 13:18:00,
2013-05-01 09:33:00,70.2,56.0,30.03,SSW,207,2.0,5.0,62,0.00,,,0.00,425,weatherlink.com 1.10,2013-05-01 13:33:00,
2013-05-01 09:48:00,71.2,57.0,30.03,SW,235,0.0,6.0,61,0.00,,,0.00,473,weatherlink.com 1.10,2013-05-01 13:48:00,
2013-05-01 10:03:00,72.6,57.0,30.03,SW,215,3.0,6.0,58,0.00,,,0.00,520,weatherlink.com 1.10,2013-05-01 14:03:00,
2013-05-01 10:18:00,73.6,57.0,30.03,SSW,192,4.0,5.0,57,0.00,,,0.00,561,weatherlink.com 1.10,2013-05-01 14:18:00,
2013-05-01 10:33:00,74.2,57.0,30.03,South,172,1.0,6.0,56,0.00,,,0.00,606,weatherlink.com 1.10,2013-05-01 14:33:00,
2013-05-01 10:48:00,74.8,58.0,30.03,SSE,147,0.0,6.0,56,0.00,,,0.00,645,weatherlink.com 1.10,2013-05-01 14:48:00,
2013-05-01 11:04:00,75.9,56.0,30.03,SW,224,5.0,9.0,51,0.00,,,0.00,686,weatherlink.com 1.10,2013-05-01 15:04:00,
2013-05-01 11:19:00,75.8,57.0,30.03,South,191,0.0,9.0,52,0.00,,,0.00,721,weatherlink.com 1.10,2013-05-01 15:19:00,
2013-05-01 11:34:00,76.6,57.0,30.03,SSW,204,1.0,7.0,50,0.00,,,0.00,754,weatherlink.com 1.10,2013-05-01 15:34:00,
2013-05-01 11:49:00,77.0,57.0,30.04,SSW,201,2.0,8.0,50,0.00,,,0.00,782,weatherlink.com 1.10,2013-05-01 15:49:00,
2013-05-01 12:04:00,77.3,57.0,30.04,SSE,162,5.0,9.0,50,0.00,,,0.00,814,weatherlink.com 1.10,2013-05-01 16:04:00,
2013-05-01 12:19:00,78.0,57.0,30.04,SSE,166,4.0,9.0,48,0.00,,,0.00,840,weatherlink.com 1.10,2013-05-01 16:19:00,
2013-05-01 12:34:00,79.4,57.0,30.03,SSW,201,1.0,7.0,46,0.00,,,0.00,858,weatherlink.com 1.10,2013-05-01 16:34:00,
2013-05-01 12:49:00,78.7,56.0,30.04,SE,141,4.0,11.0,45,0.00,,,0.00,870,weatherlink.com 1.10,2013-05-01 16:49:00,
2013-05-01 13:04:00,78.9,55.0,30.03,SSE,153,3.0,8.0,44,0.00,,,0.00,889,weatherlink.com 1.10,2013-05-01 17:04:00,
2013-05-01 13:19:00,79.4,55.0,30.03,SSE,147,7.0,11.0,43,0.00,,,0.00,898,weatherlink.com 1.10,2013-05-01 17:19:00,
2013-05-01 13:34:00,79.5,55.0,30.03,SSW,209,2.0,12.0,43,0.00,,,0.00,904,weatherlink.com 1.10,2013-05-01 17:34:00,
2013-05-01 13:49:00,79.9,53.0,30.03,East,82,7.0,8.0,40,0.00,,,0.00,912,weatherlink.com 1.10,2013-05-01 17:49:00,
2013-05-01 14:05:00,80.4,53.0,30.03,SSE,158,3.0,9.0,39,0.00,,,0.00,907,weatherlink.com 1.10,2013-05-01 18:05:00,
2013-05-01 14:20:00,80.2,53.0,30.03,SE,145,4.0,10.0,39,0.00,,,0.00,907,weatherlink.com 1.10,2013-05-01 18:20:00,
2013-05-01 14:35:00,79.8,53.0,30.03,SSE,147,4.0,10.0,39,0.00,,,0.00,891,weatherlink.com 1.10,2013-05-01 18:35:00,
2013-05-01 14:50:00,80.8,52.0,30.03,SE,143,12.0,14.0,37,0.00,,,0.00,884,weatherlink.com 1.10,2013-05-01 18:50:00,
2013-05-01 15:05:00,80.3,54.0,30.03,SE,132,5.0,13.0,40,0.00,,,0.00,868,weatherlink.com 1.10,2013-05-01 19:05:00,
2013-05-01 15:20:00,81.1,55.0,30.03,East,95,2.0,9.0,40,0.00,,,0.00,844,weatherlink.com 1.10,2013-05-01 19:20:00,
2013-05-01 15:35:00,80.8,55.0,30.03,SSE,158,5.0,17.0,41,0.00,,,0.00,824,weatherlink.com 1.10,2013-05-01 19:35:00,
2013-05-01 15:50:00,80.6,55.0,30.03,SSW,194,5.0,14.0,42,0.00,,,0.00,800,weatherlink.com 1.10,2013-05-01 19:50:00,
2013-05-01 16:05:00,81.5,55.0,30.02,SE,141,11.0,13.0,40,0.00,,,0.00,761,weatherlink.com 1.10,2013-05-01 20:05:00,
2013-05-01 16:20:00,81.3,55.0,30.02,SE,135,6.0,13.0,40,0.00,,,0.00,735,weatherlink.com 1.10,2013-05-01 20:20:00,
2013-05-01 16:35:00,81.5,56.0,30.02,SSW,201,7.0,15.0,41,0.00,,,0.00,703,weatherlink.com 1.10,2013-05-01 20:35:00,
2013-05-01 16:50:00,81.1,56.0,30.02,ESE,105,9.0,16.0,42,0.00,,,0.00,656,weatherlink.com 1.10,2013-05-01 20:50:00,
2013-05-01 17:05:00,81.1,56.0,30.02,SE,131,9.0,15.0,42,0.00,,,0.00,621,weatherlink.com 1.10,2013-05-01 21:05:00,
2013-05-01 17:20:00,81.3,56.0,30.02,SSE,150,6.0,15.0,42,0.00,,,0.00,584,weatherlink.com 1.10,2013-05-01 21:20:00,
2013-05-01 17:35:00,81.1,56.0,30.02,South,183,2.0,12.0,43,0.00,,,0.00,508,weatherlink.com 1.10,2013-05-01 21:35:00,
2013-05-01 17:50:00,81.2,57.0,30.02,SSE,157,3.0,15.0,44,0.00,,,0.00,522,weatherlink.com 1.10,2013-05-01 21:50:00,
2013-05-01 18:05:00,81.1,56.0,30.02,SE,131,10.0,15.0,43,0.00,,,0.00,425,weatherlink.com 1.10,2013-05-01 22:05:00,
2013-05-01 18:20:00,81.1,56.0,30.02,SSE,158,4.0,14.0,43,0.00,,,0.00,396,weatherlink.com 1.10,2013-05-01 22:20:00,
2013-05-01 18:35:00,81.3,57.0,30.02,South,184,2.0,12.0,44,0.00,,,0.00,359,weatherlink.com 1.10,2013-05-01 22:35:00,
2013-05-01 18:50:00,81.3,57.0,30.01,SSE,151,5.0,13.0,44,0.00,,,0.00,294,weatherlink.com 1.10,2013-05-01 22:50:00,
2013-05-01 19:05:00,81.0,57.0,30.01,SE,139,3.0,13.0,44,0.00,,,0.00,237,weatherlink.com 1.10,2013-05-01 23:05:00,
2013-05-01 19:20:00,81.0,58.0,30.01,SSE,162,4.0,9.0,45,0.00,,,0.00,185,weatherlink.com 1.10,2013-05-01 23:20:00,
2013-05-01 19:35:00,80.8,57.0,30.01,SSE,157,4.0,9.0,45,0.00,,,0.00,134,weatherlink.com 1.10,2013-05-01 23:35:00,
2013-05-01 19:50:00,80.5,58.0,30.02,SE,143,1.0,7.0,46,0.00,,,0.00,83,weatherlink.com 1.10,2013-05-01 23:50:00,
2013-05-01 20:05:00,79.9,57.0,30.02,SE,131,3.0,7.0,46,0.00,,,0.00,35,weatherlink.com 1.10,2013-05-02 00:05:00,
2013-05-01 20:20:00,79.3,57.0,30.02,SSE,148,4.0,6.0,46,0.00,,,0.00,25,weatherlink.com 1.10,2013-05-02 00:20:00,
2013-05-01 20:35:00,78.6,57.0,30.03,SE,146,0.0,4.0,48,0.00,,,0.00,11,weatherlink.com 1.10,2013-05-02 00:35:00,
2013-05-01 20:50:00,77.8,57.0,30.03,SE,146,0.0,2.0,49,0.00,,,0.00,0,weatherlink.com 1.10,2013-05-02 00:50:00,
2013-05-01 21:05:00,77.0,57.0,30.03,SE,146,0.0,1.0,51,0.00,,,0.00,0,weatherlink.com 1.10,2013-05-02 01:05:00,
2013-05-01 21:20:00,76.1,58.0,30.04,SE,146,0.0,2.0,53,0.00,,,0.00,0,weatherlink.com 1.10,2013-05-02 01:20:00,
2013-05-01 21:35:00,75.3,58.0,30.04,SE,146,0.0,1.0,55,0.00,,,0.00,0,weatherlink.com 1.10,2013-05-02 01:35:00,
2013-05-01 21:50:00,74.3,57.0,30.04,SE,146,0.0,2.0,56,0.00,,,0.00,0,weatherlink.com 1.10,2013-05-02 01:50:00,
2013-05-01 22:05:00,73.6,57.0,30.05,SE,146,0.0,2.0,57,0.00,,,0.00,0,weatherlink.com 1.10,2013-05-02 02:05:00,
2013-05-01 22:20:00,73.1,58.0,30.05,SE,146,0.0,1.0,59,0.00,,,0.00,0,weatherlink.com 1.10,2013-05-02 02:20:00,
2013-05-01 22:35:00,72.6,58.0,30.05,SE,146,0.0,1.0,60,0.00,,,0.00,0,weatherlink.com 1.10,2013-05-02 02:35:00,
2013-05-01 22:50:00,72.2,57.0,30.05,SE,146,0.0,2.0,60,0.00,,,0.00,0,weatherlink.com 1.10,2013-05-02 02:50:00,
2013-05-01 23:05:00,71.9,58.0,30.05,SE,146,0.0,3.0,61,0.00,,,0.00,0,weatherlink.com 1.10,2013-05-02 03:05:00,
2013-05-01 23:20:00,71.6,58.0,30.05,SE,146,0.0,3.0,62,0.00,,,0.00,0,weatherlink.com 1.10,2013-05-02 03:20:00,
2013-05-01 23:35:00,71.2,58.0,30.05,SE,146,1.0,2.0,63,0.00,,,0.00,0,weatherlink.com 1.10,2013-05-02 03:35:00,
2013-05-01 23:50:00,70.7,58.0,30.05,SE,146,0.0,1.0,64,0.00,,,0.00,0,weatherlink.com 1.10,2013-05-02 03:50:00,